»·PEaware :: N827WU FLW-KSBP

N827WU :: FLW-KSBP

FLIGHT INFORMATION

Flight Status: Arrived
Operator: Privately registered:
United States
More flights under this callsign
Pilot: Tyler W. (3962)
Aircraft: DEHAVILLAND DH-2 BEAVER
(DHC2)
More flights by this aircraft type
Origin: FLW
Destination: KSBP San Luis Co Regl
United States
More flights between these airports :: More routes between these airports
Route: +MQO
File this flight plan on PilotEdge
Remarks:
Altitude:
(Current/Filed)
6,000ft
Speed:
(Current/Filed)
0kts
Departed: 16-Oct-16 04:24 PM
Arrived: 16-Oct-16 05:10 PM
Distance/Time
Traveled:
Not Available
Distance/Time
To Go:
Arrived

Flight Plot

Page will automatically refresh every two minutes.

Flight plan parsing failed; only flown route is shown


Map Options




Map Legend


Flown Route
Filed Route
Departure Airport
Arrival Airport
Navaid (VOR, NDB)
Fix

Horizontal Profiles

Position Reports

Time Latitude Longitude Heading Altitude Ground
Speed
16-Oct-16 16:18 35.065729 -120.070810 218 8533ft 95kts
16-Oct-16 16:19 35.068171 -120.097083 312 8224ft 117kts
16-Oct-16 16:20 35.071674 -120.100033 310 8121ft 117kts
16-Oct-16 16:21 35.083985 -120.117681 265 7717ft 99kts
16-Oct-16 16:22 35.090260 -120.147655 279 7047ft 105kts
16-Oct-16 16:23 35.097958 -120.180031 276 6199ft 113kts
16-Oct-16 16:24 35.106384 -120.210124 280 6019ft 90kts
16-Oct-16 16:25 35.114232 -120.240534 277 6097ft 107kts
16-Oct-16 16:26 35.121070 -120.274152 275 6012ft 116kts
16-Oct-16 16:27 35.127453 -120.307705 275 6013ft 113kts
16-Oct-16 16:28 35.135708 -120.342833 275 6030ft 112kts
16-Oct-16 16:29 35.142183 -120.375451 273 6045ft 110kts
16-Oct-16 16:30 35.148569 -120.407478 282 6051ft 114kts
16-Oct-16 16:31 35.155288 -120.438090 281 6023ft 116kts
16-Oct-16 16:32 35.167235 -120.470130 279 6044ft 113kts
16-Oct-16 16:33 35.169283 -120.503057 273 6079ft 112kts
16-Oct-16 16:34 35.188036 -120.530902 284 6119ft 115kts
16-Oct-16 16:35 35.199481 -120.562735 294 6016ft 122kts
16-Oct-16 16:36 35.210946 -120.593270 256 5922ft 105kts
16-Oct-16 16:37 35.219343 -120.624990 271 6009ft 106kts
16-Oct-16 16:38 35.223776 -120.658405 285 6020ft 113kts
16-Oct-16 16:39 35.233994 -120.691432 273 6024ft 111kts
16-Oct-16 16:40 35.242387 -120.725414 273 5993ft 113kts
16-Oct-16 16:41 35.251564 -120.759611 271 5932ft 114kts
16-Oct-16 16:42 35.276096 -120.782618 323 5941ft 134kts
16-Oct-16 16:43 35.304370 -120.804826 317 6025ft 127kts
16-Oct-16 16:44 35.334360 -120.825082 314 5983ft 129kts
16-Oct-16 16:45 35.347163 -120.856539 257 5740ft 112kts
16-Oct-16 16:46 35.345073 -120.893061 261 5103ft 113kts
16-Oct-16 16:47 35.344053 -120.927812 254 4400ft 101kts
16-Oct-16 16:48 35.342650 -120.960454 253 4032ft 90kts
16-Oct-16 16:49 35.362122 -120.955907 79 3914ft 98kts
16-Oct-16 16:50 35.367288 -120.927683 103 2803ft 75kts
16-Oct-16 16:51 35.367545 -120.903043 86 2268ft 89kts
16-Oct-16 16:52 35.373964 -120.871933 90 3251ft 103kts
16-Oct-16 16:53 35.364969 -120.844252 142 4184ft 94kts
16-Oct-16 16:54 35.346219 -120.824725 156 3839ft 93kts
16-Oct-16 16:55 35.331199 -120.800653 155 3181ft 102kts
16-Oct-16 16:56 35.316618 -120.779419 138 2758ft 77kts
16-Oct-16 16:57 35.304535 -120.754510 150 2339ft 81kts
16-Oct-16 16:58 35.290159 -120.738436 166 1890ft 56kts
16-Oct-16 16:59 35.286557 -120.721946 120 1726ft 51kts
16-Oct-16 17:00 35.276754 -120.711266 124 1500ft 59kts
16-Oct-16 17:01 35.268190 -120.697915 114 1082ft 58kts
16-Oct-16 17:02 35.260352 -120.683205 140 806ft 59kts
16-Oct-16 17:03 35.253489 -120.668147 128 733ft 48kts
16-Oct-16 17:04 35.245783 -120.655523 145 574ft 43kts
16-Oct-16 17:05 35.240894 -120.646897 140 207ft 38kts
16-Oct-16 17:06 35.237691 -120.643113 285 186ft 8kts
16-Oct-16 17:07 35.237923 -120.644838 201 186ft 0kts
16-Oct-16 17:08 35.237923 -120.644838 201 186ft 0kts

Navigation Log

Ident Type
Flight plan parsing failed, navigation log unavailable